Time;durP1;ratioP1;P1;durP2;ratioP2;P2;SDS_P1;SDS_P2;PMS_P1;PMS_P2;Temp;Humidity;BMP_temperature;BMP_pressure;BME280_temperature;BME280_humidity;BME280_pressure;Samples;Min_cycle;Max_cycle;Signal;HPM_P1;HPM_P2
2021/08/16 00:02:10;;;;;;;6.03;3.70;;;;;;;;;;5104567;28;20119;-70
2021/08/16 00:04:37;;;;;;;6.30;4.85;;;;;;;;;;5101658;28;20051;-70
2021/08/16 00:07:04;;;;;;;8.48;4.22;;;;;;;;;;5093353;28;20098;-70
2021/08/16 00:09:30;;;;;;;4.72;3.75;;;;;;;;;;5092898;28;20055;-70
2021/08/16 00:11:57;;;;;;;9.90;4.75;;;;;;;;;;5092991;28;20062;-70
2021/08/16 00:14:23;;;;;;;9.10;4.68;;;;;;;;;;5092845;28;20075;-70
2021/08/16 00:16:51;;;;;;;6.88;4.70;;;;;;;;;;5092662;28;20052;-69
2021/08/16 00:19:17;;;;;;;8.50;4.70;;;;;;;;;;5092932;28;20050;-70
2021/08/16 00:21:44;;;;;;;7.90;4.65;;;;;;;;;;5095381;28;20052;-70
2021/08/16 00:24:11;;;;;;;9.55;5.13;;;;;;;;;;5096200;28;20056;-70
2021/08/16 00:26:38;;;;;;;9.95;3.75;;;;;;;;;;5096220;28;20098;-70
2021/08/16 00:29:04;;;;;;;6.38;4.45;;;;;;;;;;5096062;28;20473;-70
2021/08/16 00:31:31;;;;;;;6.85;4.18;;;;;;;;;;5097634;28;20044;-70
2021/08/16 00:33:59;;;;;;;8.02;4.65;;;;;;;;;;5115984;28;20047;-69
2021/08/16 00:36:25;;;;;;;8.70;4.78;;;;;;;;;;5116392;28;20051;-69
2021/08/16 00:38:52;;;;;;;9.43;4.78;;;;;;;;;;5116420;28;20054;-69
2021/08/16 00:41:19;;;;;;;13.70;4.50;;;;;;;;;;5116492;28;20062;-70
2021/08/16 00:43:46;;;;;;;8.73;4.40;;;;;;;;;;5116095;28;20047;-69
2021/08/16 00:46:13;;;;;;;7.13;4.05;;;;;;;;;;5115807;28;20050;-69
2021/08/16 00:48:41;;;;;;;6.88;4.53;;;;;;;;;;5115698;28;20101;-69
2021/08/16 00:51:09;;;;;;;9.32;4.57;;;;;;;;;;5115805;28;20050;-69
2021/08/16 00:53:36;;;;;;;6.43;4.25;;;;;;;;;;5115932;28;20054;-69
2021/08/16 00:56:02;;;;;;;8.55;4.80;;;;;;;;;;5116256;28;20659;-69
2021/08/16 00:58:29;;;;;;;8.70;6.30;;;;;;;;;;5115713;28;20061;-69
2021/08/16 01:00:58;;;;;;;8.35;4.07;;;;;;;;;;5112915;28;20457;-69
2021/08/16 01:03:26;;;;;;;7.18;4.47;;;;;;;;;;5103564;28;20052;-69
2021/08/16 01:05:53;;;;;;;7.32;4.20;;;;;;;;;;5101303;28;20048;-69
2021/08/16 01:08:21;;;;;;;9.13;4.93;;;;;;;;;;5094434;28;20056;-69
2021/08/16 01:10:48;;;;;;;6.00;4.05;;;;;;;;;;5094738;28;20473;-69
2021/08/16 01:13:15;;;;;;;8.10;4.22;;;;;;;;;;5094240;28;20036;-70
2021/08/16 01:15:56;;;;;;;10.50;4.53;;;;;;;;;;5094689;28;20601;-70
2021/08/16 01:18:22;;;;;;;7.05;4.88;;;;;;;;;;5094384;28;20047;-69
2021/08/16 01:20:49;;;;;;;7.97;4.93;;;;;;;;;;5094352;28;20512;-69
2021/08/16 01:23:15;;;;;;;6.75;4.65;;;;;;;;;;5093531;28;20047;-69
2021/08/16 01:25:48;;;;;;;9.65;5.13;;;;;;;;;;5094284;28;20760;-69
2021/08/16 01:28:16;;;;;;;12.38;5.10;;;;;;;;;;5094126;28;20052;-69
2021/08/16 01:30:43;;;;;;;8.35;4.65;;;;;;;;;;5093650;28;20051;-69
2021/08/16 01:33:10;;;;;;;7.78;4.57;;;;;;;;;;5108587;28;20098;-69
2021/08/16 01:35:37;;;;;;;10.85;5.28;;;;;;;;;;5113874;28;20051;-69
2021/08/16 01:38:03;;;;;;;11.13;5.30;;;;;;;;;;5114483;28;20472;-70
2021/08/16 01:40:30;;;;;;;9.05;4.60;;;;;;;;;;5113852;28;20059;-69
2021/08/16 01:42:56;;;;;;;6.38;5.10;;;;;;;;;;5113777;28;20047;-69
2021/08/16 01:45:24;;;;;;;11.15;4.82;;;;;;;;;;5113996;28;20056;-69
2021/08/16 01:47:51;;;;;;;7.90;4.80;;;;;;;;;;5114266;28;20066;-69
2021/08/16 01:50:18;;;;;;;9.15;4.40;;;;;;;;;;5110106;27;20045;-69
2021/08/16 01:52:44;;;;;;;8.25;4.30;;;;;;;;;;5112823;28;20102;-69
2021/08/16 01:55:11;;;;;;;10.82;4.65;;;;;;;;;;5114003;28;20060;-69
2021/08/16 01:57:38;;;;;;;8.68;4.63;;;;;;;;;;5113353;28;20051;-69
2021/08/16 02:00:06;;;;;;;5.60;4.43;;;;;;;;;;5113376;28;20135;-69
2021/08/16 02:02:33;;;;;;;10.93;4.30;;;;;;;;;;5104867;28;20058;-69
2021/08/16 02:05:00;;;;;;;8.55;4.45;;;;;;;;;;5104020;28;20043;-69
2021/08/16 02:07:26;;;;;;;9.32;4.88;;;;;;;;;;5096561;28;20054;-69
2021/08/16 02:09:53;;;;;;;10.52;4.97;;;;;;;;;;5102946;28;20071;-69
2021/08/16 02:12:19;;;;;;;7.75;4.82;;;;;;;;;;5112874;28;20051;-69
2021/08/16 02:14:46;;;;;;;6.97;4.72;;;;;;;;;;5112653;28;20539;-69
2021/08/16 02:17:12;;;;;;;11.25;4.65;;;;;;;;;;5113227;28;20047;-69
2021/08/16 02:19:40;;;;;;;7.63;4.32;;;;;;;;;;5113301;28;20078;-69
2021/08/16 02:22:07;;;;;;;7.30;4.45;;;;;;;;;;5113028;28;20048;-69
2021/08/16 02:24:33;;;;;;;8.80;5.50;;;;;;;;;;5112624;28;20047;-69
2021/08/16 02:27:00;;;;;;;8.35;4.05;;;;;;;;;;5112520;28;20047;-69
2021/08/16 02:29:26;;;;;;;6.32;4.20;;;;;;;;;;5113041;27;20051;-69
2021/08/16 02:31:53;;;;;;;8.85;4.35;;;;;;;;;;5113140;28;20047;-69
2021/08/16 02:34:19;;;;;;;5.90;4.25;;;;;;;;;;5113031;28;20054;-69
2021/08/16 02:36:47;;;;;;;6.57;4.38;;;;;;;;;;5112262;28;20052;-69
2021/08/16 02:39:14;;;;;;;9.80;4.28;;;;;;;;;;5112965;28;20063;-69
2021/08/16 02:41:40;;;;;;;7.22;6.05;;;;;;;;;;5112283;28;20055;-69
2021/08/16 02:44:07;;;;;;;10.40;6.80;;;;;;;;;;5112066;28;20403;-69
2021/08/16 02:46:33;;;;;;;11.35;7.22;;;;;;;;;;5092841;28;20048;-69
2021/08/16 02:49:00;;;;;;;8.52;5.95;;;;;;;;;;5092539;28;20052;-69
2021/08/16 02:51:26;;;;;;;8.18;5.47;;;;;;;;;;5106323;28;20059;-69
2021/08/16 02:53:55;;;;;;;8.57;5.82;;;;;;;;;;5112181;28;20043;-69
2021/08/16 02:56:21;;;;;;;9.07;5.22;;;;;;;;;;5112018;28;20055;-69
2021/08/16 02:58:48;;;;;;;12.25;6.32;;;;;;;;;;5112443;28;20055;-69
2021/08/16 03:01:14;;;;;;;8.68;4.72;;;;;;;;;;5112478;28;20117;-69
2021/08/16 03:03:41;;;;;;;9.30;4.82;;;;;;;;;;5106859;28;20050;-69
2021/08/16 03:06:07;;;;;;;16.08;7.07;;;;;;;;;;5101864;28;20044;-69
2021/08/16 03:08:34;;;;;;;16.17;8.00;;;;;;;;;;5109446;28;20056;-69
2021/08/16 03:11:03;;;;;;;15.00;8.15;;;;;;;;;;5112267;28;20058;-70
2021/08/16 03:13:30;;;;;;;11.95;8.13;;;;;;;;;;5111821;28;20047;-69
2021/08/16 03:15:56;;;;;;;14.25;9.13;;;;;;;;;;5111983;28;20052;-69
2021/08/16 03:18:23;;;;;;;10.93;6.95;;;;;;;;;;5112003;28;20047;-69
2021/08/16 03:20:51;;;;;;;10.60;6.13;;;;;;;;;;5112174;28;20047;-69
2021/08/16 03:23:17;;;;;;;10.88;6.75;;;;;;;;;;5111535;28;20048;-69
2021/08/16 03:25:44;;;;;;;11.07;7.20;;;;;;;;;;5112684;28;20550;-69
2021/08/16 03:28:12;;;;;;;12.98;7.35;;;;;;;;;;5112963;28;20074;-69
2021/08/16 03:30:38;;;;;;;13.30;6.47;;;;;;;;;;5112922;28;20479;-69
2021/08/16 03:33:05;;;;;;;9.65;6.70;;;;;;;;;;5112988;28;20043;-69
2021/08/16 03:35:31;;;;;;;17.77;7.88;;;;;;;;;;5112446;28;20058;-69
2021/08/16 03:37:58;;;;;;;10.75;7.38;;;;;;;;;;5112114;28;20044;-69
2021/08/16 03:40:24;;;;;;;9.55;5.65;;;;;;;;;;5112793;28;20462;-69
2021/08/16 03:42:51;;;;;;;11.48;6.55;;;;;;;;;;5112615;28;20044;-69
2021/08/16 03:45:20;;;;;;;12.00;8.75;;;;;;;;;;5112894;28;20062;-69
2021/08/16 03:47:47;;;;;;;17.33;9.77;;;;;;;;;;5112766;28;20043;-69
2021/08/16 03:50:14;;;;;;;15.15;10.38;;;;;;;;;;5112158;28;20051;-69
2021/08/16 03:52:41;;;;;;;14.40;10.02;;;;;;;;;;5112916;28;20063;-69
2021/08/16 03:55:08;;;;;;;16.98;11.75;;;;;;;;;;5114884;28;20050;-69
2021/08/16 03:57:35;;;;;;;22.33;11.15;;;;;;;;;;5117383;28;20055;-69
2021/08/16 04:00:02;;;;;;;17.92;12.15;;;;;;;;;;5116558;28;20541;-69
2021/08/16 04:02:30;;;;;;;17.55;12.60;;;;;;;;;;5115399;28;20130;-69
2021/08/16 04:04:57;;;;;;;18.90;11.75;;;;;;;;;;5112596;28;20119;-69
2021/08/16 04:07:23;;;;;;;18.33;11.32;;;;;;;;;;5115155;28;20115;-71
2021/08/16 04:09:50;;;;;;;17.80;11.68;;;;;;;;;;5116682;28;20094;-70
2021/08/16 04:12:16;;;;;;;21.63;12.38;;;;;;;;;;5116449;28;20052;-70
2021/08/16 04:14:43;;;;;;;16.20;11.10;;;;;;;;;;5116127;28;20051;-71
2021/08/16 04:17:09;;;;;;;15.98;11.25;;;;;;;;;;5115861;28;20047;-70
2021/08/16 04:19:38;;;;;;;19.23;11.50;;;;;;;;;;5115407;28;20044;-70
2021/08/16 04:22:05;;;;;;;19.25;12.30;;;;;;;;;;5115793;28;20047;-70
2021/08/16 04:24:32;;;;;;;16.45;10.30;;;;;;;;;;5116114;28;20044;-70
2021/08/16 04:26:58;;;;;;;20.95;10.57;;;;;;;;;;5115257;28;20047;-70
2021/08/16 04:29:25;;;;;;;20.35;12.18;;;;;;;;;;5115696;28;20064;-70
2021/08/16 04:31:52;;;;;;;15.98;10.20;;;;;;;;;;5115777;28;20439;-70
2021/08/16 04:34:18;;;;;;;16.80;10.93;;;;;;;;;;5114796;28;20043;-70
2021/08/16 04:36:46;;;;;;;17.27;10.45;;;;;;;;;;5115020;28;20404;-70
2021/08/16 04:39:13;;;;;;;17.55;11.50;;;;;;;;;;5115023;27;20048;-70
2021/08/16 04:41:39;;;;;;;15.93;11.43;;;;;;;;;;5115617;28;20062;-70
2021/08/16 04:44:06;;;;;;;17.50;12.25;;;;;;;;;;5115240;28;20480;-70
2021/08/16 04:46:32;;;;;;;23.83;13.52;;;;;;;;;;5115771;28;20052;-70
2021/08/16 04:49:00;;;;;;;18.70;12.73;;;;;;;;;;5115611;27;20047;-70
2021/08/16 04:51:27;;;;;;;19.73;11.25;;;;;;;;;;5115050;28;20720;-69
2021/08/16 04:53:55;;;;;;;19.13;12.32;;;;;;;;;;5114872;28;20660;-69
2021/08/16 04:56:21;;;;;;;16.48;10.88;;;;;;;;;;5114899;28;20431;-69
2021/08/16 04:58:48;;;;;;;12.13;7.57;;;;;;;;;;5103286;28;20044;-69
2021/08/16 05:01:14;;;;;;;12.07;7.43;;;;;;;;;;5106168;28;20055;-69
2021/08/16 05:03:41;;;;;;;12.15;6.68;;;;;;;;;;5113588;28;20051;-69
2021/08/16 05:06:08;;;;;;;11.65;6.05;;;;;;;;;;5108829;28;20404;-68
2021/08/16 05:08:35;;;;;;;9.27;5.38;;;;;;;;;;5109069;28;20052;-68
2021/08/16 05:11:03;;;;;;;8.55;4.57;;;;;;;;;;5108703;28;20047;-69
2021/08/16 05:13:30;;;;;;;6.68;3.88;;;;;;;;;;5113431;28;20473;-69
2021/08/16 05:15:56;;;;;;;7.97;3.80;;;;;;;;;;5113400;28;20050;-69
2021/08/16 05:18:23;;;;;;;5.03;3.20;;;;;;;;;;5114145;28;20508;-69
2021/08/16 05:20:50;;;;;;;5.05;2.80;;;;;;;;;;5113573;28;20047;-69
2021/08/16 05:23:17;;;;;;;4.32;2.95;;;;;;;;;;5114087;28;20138;-69
2021/08/16 05:25:44;;;;;;;5.30;3.33;;;;;;;;;;5114187;28;20047;-68
2021/08/16 05:28:12;;;;;;;5.90;3.55;;;;;;;;;;5114402;28;20143;-68
2021/08/16 05:30:38;;;;;;;5.38;2.60;;;;;;;;;;5114525;28;20051;-69
2021/08/16 05:33:05;;;;;;;5.90;3.35;;;;;;;;;;5114848;28;20395;-69
2021/08/16 05:35:32;;;;;;;8.05;2.95;;;;;;;;;;5113910;28;20527;-68
2021/08/16 05:37:58;;;;;;;5.95;3.33;;;;;;;;;;5114181;28;20475;-69
2021/08/16 05:40:25;;;;;;;5.20;2.83;;;;;;;;;;5113907;28;20044;-69
2021/08/16 05:42:51;;;;;;;6.28;3.47;;;;;;;;;;5114242;28;20043;-69
2021/08/16 05:45:19;;;;;;;8.65;3.17;;;;;;;;;;5114522;28;20048;-69
2021/08/16 05:47:46;;;;;;;6.47;3.30;;;;;;;;;;5114035;28;20064;-69
2021/08/16 05:50:12;;;;;;;5.68;3.35;;;;;;;;;;5113206;28;20054;-69
2021/08/16 05:52:39;;;;;;;6.55;3.90;;;;;;;;;;5114194;28;20063;-69
2021/08/16 05:55:07;;;;;;;5.97;3.60;;;;;;;;;;5113581;28;20050;-69
2021/08/16 05:57:33;;;;;;;5.43;3.30;;;;;;;;;;5113158;28;20048;-69
2021/08/16 06:00:00;;;;;;;6.13;3.20;;;;;;;;;;5113947;28;20058;-69
2021/08/16 06:02:31;;;;;;;5.70;2.95;;;;;;;;;;5113784;28;20047;-69
2021/08/16 06:04:58;;;;;;;6.15;3.42;;;;;;;;;;5113162;28;20472;-69
2021/08/16 06:07:25;;;;;;;5.57;3.45;;;;;;;;;;5105363;28;20071;-69
2021/08/16 06:09:51;;;;;;;4.53;3.03;;;;;;;;;;5101577;28;20050;-70
2021/08/16 06:12:18;;;;;;;7.00;3.40;;;;;;;;;;5102973;28;20048;-69
2021/08/16 06:14:44;;;;;;;8.43;3.90;;;;;;;;;;5113338;28;20047;-69
2021/08/16 06:17:10;;;;;;;5.53;3.25;;;;;;;;;;5113679;28;20054;-70
2021/08/16 06:19:38;;;;;;;7.28;4.00;;;;;;;;;;5113015;28;20506;-70
2021/08/16 06:22:05;;;;;;;7.20;3.50;;;;;;;;;;5113406;28;20054;-69
2021/08/16 06:24:34;;;;;;;5.05;3.13;;;;;;;;;;5113406;28;20055;-69
2021/08/16 06:27:00;;;;;;;7.85;3.22;;;;;;;;;;5113542;28;20051;-69
2021/08/16 06:29:27;;;;;;;7.05;3.55;;;;;;;;;;5113472;28;20389;-69
2021/08/16 06:31:53;;;;;;;6.75;3.70;;;;;;;;;;5113701;28;20395;-70
2021/08/16 06:34:21;;;;;;;9.30;4.60;;;;;;;;;;5112994;28;20043;-70
2021/08/16 06:36:53;;;;;;;10.13;4.10;;;;;;;;;;5113018;28;20411;-70
2021/08/16 06:39:21;;;;;;;6.90;3.85;;;;;;;;;;5113090;28;20089;-70
2021/08/16 06:41:48;;;;;;;6.78;3.55;;;;;;;;;;5113058;28;20126;-70
2021/08/16 06:44:16;;;;;;;8.55;3.97;;;;;;;;;;5113103;28;20050;-69
2021/08/16 06:46:42;;;;;;;5.07;3.38;;;;;;;;;;5112966;28;20051;-69
2021/08/16 06:49:09;;;;;;;9.50;4.32;;;;;;;;;;5112476;28;20062;-70
2021/08/16 06:51:35;;;;;;;5.97;3.63;;;;;;;;;;5112536;28;20043;-69
2021/08/16 06:54:03;;;;;;;8.98;3.97;;;;;;;;;;5112921;28;20412;-70
2021/08/16 06:56:30;;;;;;;9.57;3.70;;;;;;;;;;5112903;28;20047;-70
2021/08/16 06:58:56;;;;;;;6.70;4.03;;;;;;;;;;5113110;28;20048;-70
2021/08/16 07:01:25;;;;;;;7.10;3.90;;;;;;;;;;5111710;28;20050;-71
2021/08/16 07:03:51;;;;;;;7.18;3.65;;;;;;;;;;5104762;28;20373;-70
2021/08/16 07:06:18;;;;;;;5.00;3.47;;;;;;;;;;5111832;28;20082;-70
2021/08/16 07:08:44;;;;;;;9.90;4.40;;;;;;;;;;5104520;28;20099;-70
2021/08/16 07:11:12;;;;;;;7.45;4.00;;;;;;;;;;5107209;28;20059;-70
2021/08/16 07:13:39;;;;;;;10.57;4.20;;;;;;;;;;5112715;28;20554;-70
2021/08/16 07:16:05;;;;;;;7.60;4.32;;;;;;;;;;5111908;28;20040;-70
2021/08/16 07:18:34;;;;;;;8.80;4.20;;;;;;;;;;5112032;28;20048;-70
2021/08/16 07:21:01;;;;;;;6.82;4.55;;;;;;;;;;5111172;28;20048;-70
2021/08/16 07:23:27;;;;;;;9.80;4.30;;;;;;;;;;5112027;28;20062;-70
2021/08/16 07:25:53;;;;;;;7.03;4.35;;;;;;;;;;5112311;28;20059;-70
2021/08/16 07:28:21;;;;;;;7.53;4.40;;;;;;;;;;5112313;28;20056;-70
2021/08/16 07:30:48;;;;;;;9.15;4.22;;;;;;;;;;5111998;28;20055;-71
2021/08/16 07:33:14;;;;;;;11.35;5.22;;;;;;;;;;5112764;28;20056;-70
2021/08/16 07:35:41;;;;;;;8.63;4.25;;;;;;;;;;5112122;28;20460;-70
2021/08/16 07:38:07;;;;;;;9.00;4.78;;;;;;;;;;5112576;28;20059;-70
2021/08/16 07:40:34;;;;;;;8.73;5.10;;;;;;;;;;5112173;28;20059;-70
2021/08/16 07:43:00;;;;;;;7.97;4.93;;;;;;;;;;5112662;28;20506;-70
2021/08/16 07:45:28;;;;;;;8.23;5.30;;;;;;;;;;5111925;28;20047;-70
2021/08/16 07:47:56;;;;;;;8.77;5.03;;;;;;;;;;5111632;28;20048;-70
2021/08/16 07:50:23;;;;;;;10.73;5.35;;;;;;;;;;5112306;28;20099;-70
2021/08/16 07:52:49;;;;;;;9.48;4.90;;;;;;;;;;5112179;28;20051;-70
2021/08/16 07:55:16;;;;;;;7.03;4.45;;;;;;;;;;5111940;28;20500;-70
2021/08/16 07:57:42;;;;;;;7.72;4.70;;;;;;;;;;5112286;28;20225;-70
2021/08/16 08:00:10;;;;;;;7.15;5.43;;;;;;;;;;5112099;28;20055;-70
2021/08/16 08:02:42;;;;;;;12.63;6.00;;;;;;;;;;5112085;28;20058;-70
2021/08/16 08:05:11;;;;;;;11.18;6.03;;;;;;;;;;5111455;28;20052;-69
2021/08/16 08:07:37;;;;;;;12.18;6.22;;;;;;;;;;5111161;28;20147;-70
2021/08/16 08:10:05;;;;;;;9.50;5.50;;;;;;;;;;5107763;28;20062;-70
2021/08/16 08:12:32;;;;;;;10.10;6.35;;;;;;;;;;5102702;28;20044;-70
2021/08/16 08:14:58;;;;;;;12.40;5.55;;;;;;;;;;5095887;28;20054;-69
2021/08/16 08:17:25;;;;;;;11.70;7.10;;;;;;;;;;5111986;28;20121;-70
2021/08/16 08:19:54;;;;;;;10.90;5.90;;;;;;;;;;5111547;28;20050;-70
2021/08/16 08:22:20;;;;;;;12.80;6.68;;;;;;;;;;5111084;28;20051;-70
2021/08/16 08:24:47;;;;;;;10.38;5.78;;;;;;;;;;5111157;28;20048;-69
2021/08/16 08:27:13;;;;;;;7.93;5.82;;;;;;;;;;5110979;28;20070;-70
2021/08/16 08:29:40;;;;;;;8.52;6.60;;;;;;;;;;5111118;28;20079;-70
2021/08/16 08:32:07;;;;;;;8.23;5.50;;;;;;;;;;5111942;28;20044;-70
2021/08/16 08:34:34;;;;;;;11.40;6.97;;;;;;;;;;5111852;28;20423;-70
2021/08/16 08:37:03;;;;;;;8.65;6.15;;;;;;;;;;5111906;28;20052;-69
2021/08/16 08:39:29;;;;;;;12.55;6.30;;;;;;;;;;5111840;28;20056;-70
2021/08/16 08:41:58;;;;;;;10.90;6.35;;;;;;;;;;5113168;28;20054;-70
2021/08/16 08:44:25;;;;;;;11.18;6.00;;;;;;;;;;5115315;28;20048;-69
2021/08/16 08:46:53;;;;;;;9.00;6.05;;;;;;;;;;5115143;28;20055;-70
2021/08/16 08:49:21;;;;;;;10.50;6.57;;;;;;;;;;5115284;28;20085;-70
2021/08/16 08:51:48;;;;;;;9.05;6.40;;;;;;;;;;5114239;28;20043;-70
2021/08/16 08:54:19;;;;;;;12.27;6.97;;;;;;;;;;5114468;28;20063;-70
2021/08/16 08:56:46;;;;;;;12.93;7.05;;;;;;;;;;5114509;28;20392;-70
2021/08/16 08:59:12;;;;;;;10.73;6.82;;;;;;;;;;5114055;28;20051;-70
2021/08/16 09:01:50;;;;;;;13.57;7.45;;;;;;;;;;5114886;28;20052;-70
2021/08/16 09:04:16;;;;;;;11.18;7.30;;;;;;;;;;5112548;28;20043;-70
2021/08/16 09:06:44;;;;;;;11.48;7.25;;;;;;;;;;5114973;28;20050;-70
2021/08/16 09:09:10;;;;;;;10.70;6.10;;;;;;;;;;5111830;28;20044;-70
2021/08/16 09:11:39;;;;;;;8.88;7.15;;;;;;;;;;5102120;28;20393;-70
2021/08/16 09:14:08;;;;;;;12.13;6.20;;;;;;;;;;5108539;28;20051;-70
2021/08/16 09:16:36;;;;;;;11.95;6.50;;;;;;;;;;5114505;28;20407;-70
2021/08/16 09:19:12;;;;;;;10.52;6.68;;;;;;;;;;5114786;28;20048;-70
2021/08/16 09:21:41;;;;;;;8.32;6.13;;;;;;;;;;5108287;28;20088;-70
2021/08/16 09:24:07;;;;;;;11.93;6.47;;;;;;;;;;5114934;28;20052;-70
2021/08/16 09:26:35;;;;;;;8.82;6.05;;;;;;;;;;5114262;28;20051;-70
2021/08/16 09:29:14;;;;;;;9.52;5.93;;;;;;;;;;5114173;28;20368;-70
2021/08/16 09:31:51;;;;;;;10.65;5.90;;;;;;;;;;5114283;28;20055;-70
2021/08/16 09:34:28;;;;;;;11.48;5.35;;;;;;;;;;5114196;28;20426;-69
2021/08/16 09:36:56;;;;;;;10.48;6.03;;;;;;;;;;5114510;28;20051;-69
2021/08/16 09:39:23;;;;;;;8.45;5.15;;;;;;;;;;5114061;28;20047;-70
2021/08/16 09:41:57;;;;;;;12.98;5.57;;;;;;;;;;5113942;28;20047;-69
2021/08/16 09:44:25;;;;;;;10.00;5.75;;;;;;;;;;5114104;28;20130;-69
2021/08/16 09:46:59;;;;;;;11.73;5.25;;;;;;;;;;5114205;28;20062;-69
2021/08/16 09:49:25;;;;;;;9.88;5.20;;;;;;;;;;5113783;28;20051;-69
2021/08/16 09:52:02;;;;;;;8.55;5.43;;;;;;;;;;5112669;28;20049;-69
2021/08/16 09:54:29;;;;;;;17.13;5.80;;;;;;;;;;5105194;28;20052;-69
2021/08/16 09:56:56;;;;;;;9.55;5.60;;;;;;;;;;5110266;28;20059;-69
2021/08/16 09:59:22;;;;;;;8.15;5.40;;;;;;;;;;5113194;28;20395;-70
2021/08/16 10:01:50;;;;;;;7.80;4.97;;;;;;;;;;5114330;28;20047;-69
2021/08/16 10:04:17;;;;;;;8.60;5.07;;;;;;;;;;5113269;28;20147;-69
2021/08/16 10:06:44;;;;;;;12.77;4.18;;;;;;;;;;5113815;28;20040;-69
2021/08/16 10:09:11;;;;;;;9.38;4.68;;;;;;;;;;5113338;28;20381;-69
2021/08/16 10:11:38;;;;;;;10.73;4.68;;;;;;;;;;5106106;28;20134;-69
2021/08/16 10:14:05;;;;;;;7.45;4.40;;;;;;;;;;5108670;28;20050;-69
2021/08/16 10:16:33;;;;;;;10.57;4.68;;;;;;;;;;5112618;28;20036;-69
2021/08/16 10:19:03;;;;;;;9.40;4.60;;;;;;;;;;5112511;28;20050;-69
2021/08/16 10:21:30;;;;;;;6.53;4.15;;;;;;;;;;5112851;28;20047;-69
2021/08/16 10:23:56;;;;;;;9.50;4.45;;;;;;;;;;5112369;28;20040;-69
2021/08/16 10:26:31;;;;;;;11.43;4.18;;;;;;;;;;5111752;28;20047;-69
2021/08/16 10:28:59;;;;;;;7.57;4.20;;;;;;;;;;5112309;28;20412;-69
2021/08/16 10:31:29;;;;;;;7.50;4.25;;;;;;;;;;5109934;28;20357;-69
2021/08/16 10:33:56;;;;;;;7.43;3.85;;;;;;;;;;5111897;28;20062;-69
2021/08/16 10:36:24;;;;;;;4.97;3.38;;;;;;;;;;5111820;28;20062;-69
2021/08/16 10:38:52;;;;;;;8.30;4.07;;;;;;;;;;5111328;28;20487;-69
2021/08/16 10:41:30;;;;;;;5.70;3.92;;;;;;;;;;5112727;28;20056;-69
2021/08/16 10:43:57;;;;;;;10.50;4.13;;;;;;;;;;5092645;28;20059;-69
2021/08/16 10:46:24;;;;;;;9.32;4.80;;;;;;;;;;5107376;28;20051;-69
2021/08/16 10:49:01;;;;;;;5.90;3.72;;;;;;;;;;5112998;28;20047;-69
2021/08/16 10:51:44;;;;;;;6.55;3.50;;;;;;;;;;5111534;28;20051;-69
2021/08/16 10:54:22;;;;;;;7.22;4.30;;;;;;;;;;5111371;28;20062;-69
2021/08/16 10:56:50;;;;;;;5.97;3.58;;;;;;;;;;5111284;28;20043;-69
2021/08/16 10:59:18;;;;;;;6.43;3.63;;;;;;;;;;5110149;28;20052;-69
2021/08/16 11:01:45;;;;;;;8.23;4.00;;;;;;;;;;5111944;28;20051;-69
2021/08/16 11:04:15;;;;;;;6.38;3.40;;;;;;;;;;5111389;28;20050;-69
2021/08/16 11:06:53;;;;;;;10.55;3.97;;;;;;;;;;5111395;28;20389;-69
2021/08/16 11:09:24;;;;;;;8.38;3.45;;;;;;;;;;5112219;28;20453;-69
2021/08/16 11:11:54;;;;;;;7.32;3.70;;;;;;;;;;5108434;28;20511;-69
2021/08/16 11:14:24;;;;;;;7.07;3.58;;;;;;;;;;5108805;28;20411;-69
2021/08/16 11:16:51;;;;;;;9.82;3.20;;;;;;;;;;5108725;28;20047;-68
2021/08/16 11:19:18;;;;;;;8.40;4.45;;;;;;;;;;5111643;28;20122;-68
2021/08/16 11:21:55;;;;;;;11.52;3.92;;;;;;;;;;5111104;28;20043;-68
2021/08/16 11:24:27;;;;;;;7.82;4.00;;;;;;;;;;5111315;28;20062;-68
2021/08/16 11:26:55;;;;;;;9.70;3.83;;;;;;;;;;5110972;28;20477;-68
2021/08/16 11:29:23;;;;;;;9.07;4.22;;;;;;;;;;5111969;28;20051;-68
2021/08/16 11:31:58;;;;;;;9.48;4.28;;;;;;;;;;5112126;28;20055;-67
2021/08/16 11:34:25;;;;;;;7.55;3.47;;;;;;;;;;5111485;28;20053;-68
2021/08/16 11:36:51;;;;;;;9.70;3.90;;;;;;;;;;5111053;28;20039;-68
2021/08/16 11:39:28;;;;;;;7.53;3.92;;;;;;;;;;5110980;28;20047;-68
2021/08/16 11:41:57;;;;;;;5.82;3.30;;;;;;;;;;5109586;28;20043;-69
2021/08/16 11:44:23;;;;;;;8.85;4.05;;;;;;;;;;5111121;28;20044;-68
2021/08/16 11:46:52;;;;;;;6.28;3.38;;;;;;;;;;5110623;28;20047;-69
2021/08/16 11:49:18;;;;;;;7.18;3.70;;;;;;;;;;5111147;28;20055;-69
2021/08/16 11:51:46;;;;;;;8.77;4.00;;;;;;;;;;5110868;28;20381;-68
2021/08/16 11:54:25;;;;;;;7.22;3.85;;;;;;;;;;5110691;28;20047;-70
2021/08/16 11:56:53;;;;;;;6.28;3.58;;;;;;;;;;5109298;28;20044;-70
2021/08/16 11:59:20;;;;;;;5.32;3.33;;;;;;;;;;5111777;28;20051;-69
2021/08/16 12:01:47;;;;;;;6.43;3.40;;;;;;;;;;5108201;28;20051;-69
2021/08/16 12:04:13;;;;;;;7.57;4.20;;;;;;;;;;5110623;28;20054;-68
2021/08/16 12:06:40;;;;;;;7.30;3.97;;;;;;;;;;5110884;28;20047;-68
2021/08/16 12:09:07;;;;;;;9.63;4.00;;;;;;;;;;5111714;28;20096;-70
2021/08/16 12:11:36;;;;;;;9.32;3.95;;;;;;;;;;5109927;28;20535;-69
2021/08/16 12:14:02;;;;;;;5.50;3.67;;;;;;;;;;5102445;28;20051;-70
2021/08/16 12:16:30;;;;;;;8.05;3.75;;;;;;;;;;5109818;28;20054;-70
2021/08/16 12:18:57;;;;;;;7.18;3.72;;;;;;;;;;5115883;28;20055;-69
2021/08/16 12:21:23;;;;;;;9.07;4.30;;;;;;;;;;5115338;28;20058;-69
2021/08/16 12:23:54;;;;;;;9.30;3.92;;;;;;;;;;5115300;28;20479;-69
2021/08/16 12:26:28;;;;;;;9.85;4.15;;;;;;;;;;5115528;28;20479;-70
2021/08/16 12:28:56;;;;;;;8.03;4.03;;;;;;;;;;5115802;28;20055;-69
2021/08/16 12:31:25;;;;;;;7.32;4.03;;;;;;;;;;5115614;28;20381;-69
2021/08/16 12:33:55;;;;;;;6.65;3.83;;;;;;;;;;5115232;28;20052;-70
2021/08/16 12:36:23;;;;;;;5.95;3.65;;;;;;;;;;5114996;28;20054;-70
2021/08/16 12:38:56;;;;;;;6.32;3.80;;;;;;;;;;5115415;28;20052;-70
2021/08/16 12:41:23;;;;;;;9.68;4.43;;;;;;;;;;5115498;28;20043;-70
2021/08/16 12:43:49;;;;;;;7.32;4.43;;;;;;;;;;5114409;28;20074;-70
2021/08/16 12:46:27;;;;;;;7.45;3.92;;;;;;;;;;5114100;28;20054;-70
2021/08/16 12:48:56;;;;;;;10.07;4.13;;;;;;;;;;5115248;28;20071;-70
2021/08/16 12:51:22;;;;;;;8.75;4.30;;;;;;;;;;5115354;28;20051;-68
2021/08/16 12:53:49;;;;;;;8.50;4.50;;;;;;;;;;5114576;28;20051;-68
2021/08/16 12:56:15;;;;;;;9.65;4.47;;;;;;;;;;5114292;28;20053;-71
2021/08/16 12:58:42;;;;;;;9.38;4.55;;;;;;;;;;5115303;28;20054;-70
2021/08/16 13:01:08;;;;;;;8.80;4.28;;;;;;;;;;5114801;28;20051;-70
2021/08/16 13:03:36;;;;;;;9.88;4.38;;;;;;;;;;5114379;28;20054;-70
2021/08/16 13:06:02;;;;;;;8.48;3.88;;;;;;;;;;5113958;28;20044;-70
2021/08/16 13:08:29;;;;;;;8.05;4.43;;;;;;;;;;5113743;28;20589;-70
2021/08/16 13:10:55;;;;;;;6.65;4.40;;;;;;;;;;5113601;28;20059;-70
2021/08/16 13:13:22;;;;;;;8.25;4.63;;;;;;;;;;5111585;28;20110;-70
2021/08/16 13:15:48;;;;;;;8.15;4.40;;;;;;;;;;5111100;28;20044;-71
2021/08/16 13:18:15;;;;;;;8.25;5.00;;;;;;;;;;5113599;28;20040;-70
2021/08/16 13:20:43;;;;;;;7.85;4.50;;;;;;;;;;5113469;28;20488;-70
2021/08/16 13:23:10;;;;;;;9.38;5.35;;;;;;;;;;5113127;28;20043;-71
2021/08/16 13:25:37;;;;;;;8.32;5.03;;;;;;;;;;5110476;28;20051;-70
2021/08/16 13:28:04;;;;;;;7.78;4.75;;;;;;;;;;5112751;28;20043;-70
2021/08/16 13:30:30;;;;;;;7.95;4.75;;;;;;;;;;5113639;28;20054;-70
2021/08/16 13:32:57;;;;;;;7.43;4.53;;;;;;;;;;5113255;28;20054;-70
2021/08/16 13:35:23;;;;;;;7.18;4.20;;;;;;;;;;5113062;28;20116;-70
2021/08/16 13:37:51;;;;;;;7.43;4.70;;;;;;;;;;5113011;28;20125;-70
2021/08/16 13:40:18;;;;;;;10.77;4.97;;;;;;;;;;5110698;28;20498;-70
2021/08/16 13:42:44;;;;;;;7.82;4.75;;;;;;;;;;5113107;28;20081;-70
2021/08/16 13:45:11;;;;;;;8.07;4.68;;;;;;;;;;5112821;28;20043;-68
2021/08/16 13:47:38;;;;;;;7.57;4.68;;;;;;;;;;5110688;28;20487;-70
2021/08/16 13:50:06;;;;;;;9.65;5.10;;;;;;;;;;5113159;28;20047;-70
2021/08/16 13:52:32;;;;;;;9.38;4.78;;;;;;;;;;5112572;28;20043;-70
2021/08/16 13:55:00;;;;;;;10.57;4.63;;;;;;;;;;5112841;28;20144;-71
2021/08/16 13:57:27;;;;;;;12.90;4.88;;;;;;;;;;5112137;28;20659;-70
2021/08/16 13:59:53;;;;;;;8.30;5.03;;;;;;;;;;5112082;28;20055;-70
2021/08/16 14:02:20;;;;;;;9.32;4.60;;;;;;;;;;5113034;28;20044;-70
2021/08/16 14:04:46;;;;;;;9.10;5.43;;;;;;;;;;5112323;28;20039;-71
2021/08/16 14:07:13;;;;;;;9.23;4.63;;;;;;;;;;5111872;28;20427;-71
2021/08/16 14:09:39;;;;;;;8.20;5.05;;;;;;;;;;5112680;28;20047;-71
2021/08/16 14:12:08;;;;;;;9.98;5.07;;;;;;;;;;5113295;28;20052;-71
2021/08/16 14:14:34;;;;;;;7.35;4.65;;;;;;;;;;5109549;28;20051;-71
2021/08/16 14:17:02;;;;;;;11.05;4.80;;;;;;;;;;5111063;28;20043;-71
2021/08/16 14:19:30;;;;;;;8.48;5.20;;;;;;;;;;5112389;28;20132;-71
2021/08/16 14:21:56;;;;;;;11.80;5.32;;;;;;;;;;5109954;28;20544;-69
2021/08/16 14:24:23;;;;;;;8.52;4.90;;;;;;;;;;5112355;28;20051;-69
2021/08/16 14:26:49;;;;;;;10.07;4.60;;;;;;;;;;5112023;28;20039;-70
2021/08/16 14:29:17;;;;;;;9.77;5.30;;;;;;;;;;5112301;28;20043;-69
2021/08/16 14:31:44;;;;;;;10.18;5.40;;;;;;;;;;5111951;28;20055;-69
2021/08/16 14:34:10;;;;;;;9.70;5.35;;;;;;;;;;5111486;28;20050;-69
2021/08/16 14:36:37;;;;;;;8.15;4.85;;;;;;;;;;5109175;28;20053;-69
2021/08/16 14:39:03;;;;;;;8.75;5.10;;;;;;;;;;5110851;28;20047;-69
2021/08/16 14:41:30;;;;;;;8.43;5.40;;;;;;;;;;5112209;28;20756;-68